createdAt,value
2019-03-10T00:00:48.309Z,63.79
2019-03-10T00:01:48.123Z,64.62
2019-03-10T00:02:48.155Z,64.62
2019-03-10T00:03:48.134Z,64.42
2019-03-10T00:04:48.109Z,64.31
2019-03-10T00:05:48.396Z,65.06
2019-03-10T00:06:49.906Z,65.34
2019-03-10T00:07:48.059Z,64.83
2019-03-10T00:08:49.058Z,65.14
2019-03-10T00:09:48.085Z,65.24
2019-03-10T00:10:48.186Z,64.96
2019-03-10T00:12:01.498Z,64.31
2019-03-10T00:12:49.230Z,65.17
2019-03-10T00:13:48.141Z,65.37
2019-03-10T00:14:48.149Z,65.58
2019-03-10T00:15:48.250Z,66.10
2019-03-10T00:16:49.059Z,65.58
2019-03-10T00:17:48.222Z,66.23
2019-03-10T00:18:49.399Z,66.20
2019-03-10T00:19:48.872Z,66.00
2019-03-10T00:20:48.469Z,65.58
2019-03-10T00:21:48.890Z,65.37
2019-03-10T00:22:48.078Z,66.23
2019-03-10T00:23:48.071Z,66.13
2019-03-10T00:24:47.889Z,66.23
2019-03-10T00:25:50.476Z,66.44
2019-03-10T00:26:48.379Z,66.75
2019-03-10T00:27:48.382Z,66.85
2019-03-10T00:28:47.836Z,66.64
2019-03-10T00:29:47.881Z,66.75
2019-03-10T00:30:47.819Z,66.33
2019-03-10T00:31:47.798Z,66.33
2019-03-10T00:32:47.815Z,66.75
2019-03-10T00:33:47.886Z,66.33
2019-03-10T00:34:47.867Z,66.54
2019-03-10T00:35:47.953Z,66.33
2019-03-10T00:36:47.864Z,66.64
2019-03-10T00:37:47.783Z,66.99
2019-03-10T00:38:47.732Z,67.37
2019-03-10T00:39:47.931Z,66.85
2019-03-10T00:40:47.762Z,66.33
2019-03-10T00:41:47.715Z,66.23
2019-03-10T00:42:47.705Z,66.54
2019-03-10T00:43:47.816Z,66.64
2019-03-10T00:44:47.682Z,66.33
2019-03-10T00:45:47.779Z,66.64
2019-03-10T00:46:47.744Z,66.85
2019-03-10T00:47:47.768Z,66.85
2019-03-10T00:49:09.126Z,66.96
2019-03-10T00:49:47.752Z,66.72
2019-03-10T00:50:47.723Z,66.72
2019-03-10T00:51:47.587Z,66.82
2019-03-10T00:52:47.668Z,67.06
2019-03-10T00:53:48.387Z,67.06
2019-03-10T00:54:47.571Z,67.27
2019-03-10T00:55:47.643Z,67.27
2019-03-10T00:56:49.264Z,67.27
2019-03-10T00:57:47.504Z,67.16
2019-03-10T00:58:47.512Z,67.27
2019-03-10T00:59:47.508Z,67.16
2019-03-10T01:00:48.885Z,67.06
2019-03-10T01:01:47.485Z,67.37
2019-03-10T01:02:47.465Z,67.06
2019-03-10T01:03:47.480Z,67.16
2019-03-10T01:04:47.480Z,66.96
2019-03-10T01:05:47.427Z,66.93
2019-03-10T01:06:47.489Z,67.99
2019-03-10T01:07:47.510Z,67.27
2019-03-10T01:08:58.461Z,67.16
2019-03-10T01:10:16.033Z,67.88
2019-03-10T01:10:48.007Z,67.58
2019-03-10T01:11:55.999Z,67.24
2019-03-10T01:14:07.288Z,67.54
2019-03-10T01:15:07.108Z,68.09
2019-03-10T01:16:07.095Z,67.47
2019-03-10T01:17:07.082Z,67.58
2019-03-10T01:18:07.064Z,67.68
2019-03-10T01:19:07.060Z,67.37
2019-03-10T01:20:07.077Z,67.47
2019-03-10T01:21:07.055Z,67.27
2019-03-10T01:22:07.051Z,67.47
2019-03-10T01:23:07.021Z,67.68
2019-03-10T01:24:06.998Z,67.68
2019-03-10T01:25:06.994Z,68.23
2019-03-10T01:26:07.331Z,68.12
2019-03-10T01:27:07.042Z,68.92
2019-03-10T01:28:06.978Z,67.68
2019-03-10T01:29:06.946Z,67.99
2019-03-10T01:30:07.067Z,67.68
2019-03-10T01:31:06.914Z,67.47
2019-03-10T01:32:06.962Z,68.02
2019-03-10T01:33:06.907Z,68.09
2019-03-10T01:34:06.991Z,68.09
2019-03-10T01:35:06.882Z,68.09
2019-03-10T01:36:06.905Z,68.43
2019-03-10T01:37:06.907Z,68.74
2019-03-10T01:38:07.808Z,68.33
2019-03-10T01:39:06.923Z,68.74
2019-03-10T01:40:07.061Z,68.23
2019-03-10T01:41:06.843Z,68.09
2019-03-10T01:42:06.966Z,67.58
2019-03-10T01:43:07.726Z,67.68
2019-03-10T01:44:07.069Z,68.43
2019-03-10T01:45:06.922Z,68.12
2019-03-10T01:46:06.878Z,68.30
2019-03-10T01:47:06.911Z,68.12
2019-03-10T01:48:06.929Z,67.99
2019-03-10T01:49:06.868Z,68.23
2019-03-10T01:50:07.765Z,68.54
2019-03-10T01:51:06.930Z,68.23
2019-03-10T01:52:06.793Z,68.09
2019-03-10T01:53:06.713Z,68.30
2019-03-10T01:54:06.746Z,68.19
2019-03-10T01:55:06.713Z,68.61
2019-03-10T01:56:06.655Z,68.30
2019-03-10T01:57:06.642Z,68.40
2019-03-10T01:58:06.622Z,67.88
2019-03-10T01:59:06.638Z,68.19
2019-03-10T02:00:06.661Z,68.19
2019-03-10T02:01:06.599Z,68.23
2019-03-10T02:02:06.595Z,68.61
2019-03-10T02:03:06.586Z,68.09
2019-03-10T02:04:06.567Z,68.51
2019-03-10T02:05:06.607Z,68.71
2019-03-10T02:06:06.569Z,68.19
2019-03-10T02:07:06.532Z,67.88
2019-03-10T02:08:06.524Z,67.88
2019-03-10T02:09:06.532Z,68.19
2019-03-10T02:10:06.547Z,68.09
2019-03-10T02:11:06.511Z,68.82
2019-03-10T02:12:06.472Z,68.51
2019-03-10T02:13:06.472Z,68.30
2019-03-10T02:14:06.456Z,68.19
2019-03-10T02:15:06.471Z,68.71
2019-03-10T02:16:06.487Z,68.71
2019-03-10T02:17:07.238Z,68.19
2019-03-10T02:18:06.680Z,68.51
2019-03-10T02:19:06.558Z,68.61
2019-03-10T02:20:06.424Z,68.19
2019-03-10T02:21:07.448Z,68.82
2019-03-10T02:22:06.390Z,68.19
2019-03-10T02:23:07.409Z,68.19
2019-03-10T02:24:06.345Z,68.64
2019-03-10T02:25:06.360Z,68.61
2019-03-10T02:26:07.374Z,68.61
2019-03-10T02:27:07.230Z,68.51
2019-03-10T02:28:07.477Z,68.43
2019-03-10T02:29:06.383Z,68.85
2019-03-10T02:30:06.365Z,69.57
2019-03-10T02:31:06.429Z,69.57
2019-03-10T02:32:06.268Z,69.26
2019-03-10T02:33:06.332Z,69.67
2019-03-10T02:34:06.253Z,69.16
2019-03-10T02:35:06.346Z,69.88
2019-03-10T02:36:06.271Z,69.26
2019-03-10T02:37:06.223Z,68.95
2019-03-10T02:38:06.215Z,69.37
2019-03-10T02:39:06.196Z,69.47
2019-03-10T02:40:06.186Z,69.78
2019-03-10T02:41:06.173Z,69.78
2019-03-10T02:42:06.199Z,69.37
2019-03-10T02:43:06.168Z,69.57
2019-03-10T02:44:06.156Z,69.37
2019-03-10T02:45:06.118Z,69.67
2019-03-10T02:46:06.190Z,70.29
2019-03-10T02:47:06.739Z,69.09
2019-03-10T02:48:06.111Z,69.92
2019-03-10T02:49:06.098Z,70.12
2019-03-10T02:50:06.081Z,70.09
2019-03-10T02:51:06.072Z,69.60
2019-03-10T02:52:06.149Z,69.60
2019-03-10T02:53:06.055Z,69.71
2019-03-10T02:54:06.038Z,69.81
2019-03-10T02:55:06.011Z,69.81
2019-03-10T02:56:06.001Z,69.81
2019-03-10T02:57:06.030Z,69.26
2019-03-10T02:58:06.060Z,69.71
2019-03-10T02:59:05.989Z,69.88
2019-03-10T03:00:05.973Z,69.57
2019-03-10T03:01:05.969Z,69.57
2019-03-10T03:02:05.957Z,68.64
2019-03-10T03:03:05.951Z,69.16
2019-03-10T03:04:05.972Z,69.06
2019-03-10T03:05:05.917Z,68.74
2019-03-10T03:06:05.918Z,68.64
2019-03-10T03:07:05.885Z,68.64
2019-03-10T03:08:05.877Z,68.12
2019-03-10T03:09:05.858Z,67.91
2019-03-10T03:10:05.893Z,68.02
2019-03-10T03:11:05.858Z,68.23
2019-03-10T03:12:05.842Z,68.23
2019-03-10T03:13:05.823Z,68.54
2019-03-10T03:14:05.814Z,68.64
2019-03-10T03:15:05.853Z,68.74
2019-03-10T03:16:05.804Z,68.33
2019-03-10T03:17:05.802Z,68.23
2019-03-10T03:18:05.775Z,68.02
2019-03-10T03:19:05.770Z,68.33
2019-03-10T03:20:05.765Z,68.02
2019-03-10T03:21:05.730Z,68.64
2019-03-10T03:22:05.750Z,68.85
2019-03-10T03:23:05.773Z,68.85
2019-03-10T03:24:05.723Z,68.85
2019-03-10T03:25:05.695Z,68.88
2019-03-10T03:26:05.686Z,68.95
2019-03-10T03:27:05.668Z,68.64
2019-03-10T03:28:05.661Z,68.54
2019-03-10T03:29:05.704Z,69.06
2019-03-10T03:30:06.061Z,68.74
2019-03-10T03:31:05.624Z,68.85
2019-03-10T03:32:05.790Z,68.33
2019-03-10T03:33:05.599Z,68.64
2019-03-10T03:34:05.727Z,68.51
2019-03-10T03:35:05.590Z,68.82
2019-03-10T03:36:05.575Z,68.61
2019-03-10T03:37:05.571Z,68.51
2019-03-10T03:38:05.560Z,68.51
2019-03-10T03:39:05.564Z,69.16
2019-03-10T03:40:05.556Z,68.74
2019-03-10T03:41:05.545Z,69.57
2019-03-10T03:42:05.514Z,69.16
2019-03-10T03:43:05.500Z,69.67
2019-03-10T03:44:05.510Z,69.16
2019-03-10T03:45:05.483Z,69.67
2019-03-10T03:46:05.480Z,69.74
2019-03-10T03:47:05.470Z,70.09
2019-03-10T03:48:05.442Z,70.19
2019-03-10T03:49:05.468Z,70.19
2019-03-10T03:50:05.428Z,69.88
2019-03-10T03:51:05.430Z,70.19
2019-03-10T03:52:05.423Z,69.88
2019-03-10T03:53:05.404Z,69.95
2019-03-10T03:54:05.402Z,70.47
2019-03-10T03:55:05.373Z,70.47
2019-03-10T03:56:05.353Z,70.71
2019-03-10T03:57:05.338Z,70.61
2019-03-10T03:58:05.339Z,71.02
2019-03-10T03:59:05.352Z,70.78
2019-03-10T04:00:05.319Z,71.12
2019-03-10T04:01:05.308Z,71.12
2019-03-10T04:02:05.284Z,71.33
2019-03-10T04:03:05.308Z,71.53
2019-03-10T04:04:05.289Z,71.22
2019-03-10T04:05:05.390Z,71.43
2019-03-10T04:06:05.262Z,71.09
2019-03-10T04:07:05.266Z,71.09
2019-03-10T04:08:05.305Z,70.81
2019-03-10T04:09:05.245Z,70.98
2019-03-10T04:10:05.229Z,71.09
2019-03-10T04:11:05.193Z,71.30
2019-03-10T04:12:05.749Z,71.40
2019-03-10T04:13:05.189Z,72.05
2019-03-10T04:14:05.158Z,71.84
2019-03-10T04:15:05.206Z,71.64
2019-03-10T04:16:05.147Z,72.05
2019-03-10T04:17:05.133Z,71.84
2019-03-10T04:18:05.135Z,72.16
2019-03-10T04:19:05.122Z,71.95
2019-03-10T04:20:05.136Z,71.74
2019-03-10T04:21:05.095Z,72.02
2019-03-10T04:22:05.080Z,72.26
2019-03-10T04:23:05.067Z,71.61
2019-03-10T04:24:05.114Z,71.95
2019-03-10T04:25:05.071Z,71.74
2019-03-10T04:26:05.041Z,71.50
2019-03-10T04:27:13.890Z,71.92
2019-03-10T04:28:05.025Z,71.74
2019-03-10T04:29:14.883Z,72.33
2019-03-10T04:30:17.911Z,72.12
2019-03-10T04:31:04.975Z,71.81
2019-03-10T04:32:04.963Z,71.71
2019-03-10T04:33:04.978Z,71.81
2019-03-10T04:34:04.945Z,71.92
2019-03-10T04:35:04.938Z,72.02
2019-03-10T04:36:04.951Z,71.92
2019-03-10T04:37:04.920Z,72.12
2019-03-10T04:38:04.922Z,71.92
2019-03-10T04:39:04.906Z,72.12
2019-03-10T04:40:04.882Z,72.33
2019-03-10T04:41:04.894Z,72.33
2019-03-10T04:42:04.859Z,72.53
2019-03-10T04:43:04.860Z,72.43
2019-03-10T04:44:04.860Z,72.33
2019-03-10T04:45:04.844Z,71.81
2019-03-10T04:46:04.856Z,71.88
2019-03-10T04:47:04.812Z,72.33
2019-03-10T04:48:04.797Z,71.88
2019-03-10T04:49:04.794Z,72.02
2019-03-10T04:50:04.796Z,72.12
2019-03-10T04:51:04.769Z,72.33
2019-03-10T04:52:04.791Z,72.43
2019-03-10T04:53:04.756Z,72.43
2019-03-10T04:54:04.730Z,72.64
2019-03-10T04:55:04.724Z,72.74
2019-03-10T04:56:04.715Z,72.64
2019-03-10T04:57:04.730Z,72.53
2019-03-10T04:58:04.690Z,72.61
2019-03-10T04:59:04.688Z,72.19
2019-03-10T05:00:04.695Z,71.78
2019-03-10T05:01:04.656Z,71.57
2019-03-10T05:02:13.328Z,71.92
2019-03-10T05:03:04.700Z,72.30
2019-03-10T05:04:04.625Z,72.09
2019-03-10T05:05:04.619Z,72.61
2019-03-10T05:06:13.941Z,72.91
2019-03-10T05:07:04.611Z,72.91
2019-03-10T05:08:04.600Z,72.40
2019-03-10T05:09:04.564Z,71.98
2019-03-10T05:10:04.553Z,72.09
2019-03-10T05:11:04.551Z,72.09
2019-03-10T05:12:04.548Z,72.50
2019-03-10T05:13:04.950Z,72.47
2019-03-10T05:14:04.599Z,72.40
2019-03-10T05:15:04.508Z,72.61
2019-03-10T05:16:04.497Z,72.67
2019-03-10T05:17:04.484Z,72.81
2019-03-10T05:18:04.514Z,72.71
2019-03-10T05:19:04.479Z,72.71
2019-03-10T05:20:04.484Z,72.50
2019-03-10T05:21:04.449Z,72.91
2019-03-10T05:22:04.441Z,72.81
2019-03-10T05:23:04.452Z,73.02
2019-03-10T05:24:04.449Z,73.26
2019-03-10T05:25:04.410Z,73.85
2019-03-10T05:26:04.404Z,73.74
2019-03-10T05:27:04.381Z,74.15
2019-03-10T05:28:04.366Z,73.95
2019-03-10T05:29:04.383Z,73.95
2019-03-10T05:30:04.345Z,73.64
2019-03-10T05:31:04.455Z,73.54
2019-03-10T05:32:04.381Z,73.02
2019-03-10T05:33:04.323Z,73.22
2019-03-10T05:34:04.332Z,73.19
2019-03-10T05:35:04.304Z,73.09
2019-03-10T05:36:04.283Z,73.09
2019-03-10T05:37:04.283Z,72.78
2019-03-10T05:38:04.293Z,72.67
2019-03-10T05:39:04.297Z,72.91
2019-03-10T05:40:04.245Z,72.91
2019-03-10T05:41:04.234Z,73.09
2019-03-10T05:42:04.232Z,73.02
2019-03-10T05:43:04.218Z,73.12
2019-03-10T05:44:04.233Z,73.02
2019-03-10T05:45:04.196Z,73.29
2019-03-10T05:46:04.207Z,73.50
2019-03-10T05:47:04.174Z,73.22
2019-03-10T05:48:04.167Z,73.74
2019-03-10T05:49:04.142Z,73.74
2019-03-10T05:50:04.136Z,73.33
2019-03-10T05:51:04.155Z,72.99
2019-03-10T05:52:04.124Z,72.99
2019-03-10T05:53:04.117Z,73.39
2019-03-10T05:54:04.092Z,73.19
2019-03-10T05:55:04.083Z,73.02
2019-03-10T05:56:04.074Z,73.02
2019-03-10T05:57:04.105Z,73.09
2019-03-10T05:58:04.059Z,73.19
2019-03-10T05:59:04.038Z,73.19
2019-03-10T06:00:04.043Z,73.33
2019-03-10T06:01:04.034Z,72.26
2019-03-10T06:02:04.027Z,72.71
2019-03-10T06:03:03.992Z,72.47
2019-03-10T06:04:03.991Z,72.61
2019-03-10T06:05:05.951Z,72.67
2019-03-10T06:06:04.005Z,72.57
2019-03-10T06:07:03.960Z,72.57
2019-03-10T06:08:03.938Z,72.88
2019-03-10T06:09:03.932Z,73.12
2019-03-10T06:10:03.920Z,72.47
2019-03-10T06:11:03.921Z,72.26
2019-03-10T06:12:03.920Z,72.30
2019-03-10T06:13:03.880Z,72.67
2019-03-10T06:14:03.893Z,72.78
2019-03-10T06:15:03.974Z,72.67
2019-03-10T06:16:03.876Z,72.88
2019-03-10T06:17:03.871Z,74.15
2019-03-10T06:18:13.155Z,74.43
2019-03-10T06:19:04.857Z,73.71
2019-03-10T06:20:03.825Z,73.09
2019-03-10T06:21:03.809Z,73.43
2019-03-10T06:22:03.828Z,72.88
2019-03-10T06:23:03.833Z,73.09
2019-03-10T06:24:04.445Z,72.99
2019-03-10T06:25:03.778Z,72.57
2019-03-10T06:26:03.762Z,72.88
2019-03-10T06:27:03.737Z,73.12
2019-03-10T06:28:03.768Z,72.78
2019-03-10T06:29:03.728Z,73.19
2019-03-10T06:30:03.711Z,73.22
2019-03-10T06:31:03.725Z,73.12
2019-03-10T06:32:03.682Z,73.09
2019-03-10T06:33:03.715Z,72.91
2019-03-10T06:34:03.688Z,72.71
2019-03-10T06:35:03.671Z,72.57
2019-03-10T06:36:03.705Z,72.26
2019-03-10T06:37:03.654Z,72.36
2019-03-10T06:38:03.695Z,72.57
2019-03-10T06:39:03.682Z,71.92
2019-03-10T06:40:03.609Z,71.51
2019-03-10T06:41:03.592Z,71.81
2019-03-10T06:42:03.581Z,71.58
2019-03-10T06:43:04.939Z,71.47
2019-03-10T06:44:03.642Z,70.86
2019-03-10T06:45:03.544Z,70.86
2019-03-10T06:46:03.540Z,70.72
2019-03-10T06:47:03.539Z,70.28
2019-03-10T06:48:03.517Z,70.17
2019-03-10T06:49:03.529Z,69.69
2019-03-10T06:50:03.512Z,69.69
2019-03-10T06:51:03.499Z,69.89
2019-03-10T06:52:03.479Z,70.65
2019-03-10T06:53:03.455Z,71.06
2019-03-10T06:54:03.498Z,70.44
2019-03-10T06:55:03.462Z,70.20
2019-03-10T06:56:03.477Z,70.00
2019-03-10T06:57:03.434Z,70.20
2019-03-10T06:58:03.426Z,69.89
2019-03-10T06:59:03.418Z,70.10
2019-03-10T07:00:03.405Z,69.96
2019-03-10T07:01:03.400Z,69.86
2019-03-10T07:02:03.511Z,69.65
2019-03-10T07:03:03.355Z,69.79
2019-03-10T07:04:03.365Z,69.76
2019-03-10T07:05:03.363Z,69.65
2019-03-10T07:06:03.322Z,69.55
2019-03-10T07:07:03.306Z,69.65
2019-03-10T07:08:03.329Z,69.55
2019-03-10T07:09:03.304Z,69.69
2019-03-10T07:10:03.310Z,69.65
2019-03-10T07:11:03.280Z,69.55
2019-03-10T07:12:03.326Z,69.24
2019-03-10T07:13:03.246Z,69.45
2019-03-10T07:14:03.248Z,69.65
2019-03-10T07:15:03.248Z,69.79
2019-03-10T07:16:03.204Z,69.89
2019-03-10T07:17:03.201Z,69.65
2019-03-10T07:18:03.182Z,69.65
2019-03-10T07:19:03.175Z,69.45
2019-03-10T07:20:03.195Z,69.24
2019-03-10T07:21:03.207Z,69.14
2019-03-10T07:22:03.165Z,69.35
2019-03-10T07:23:03.134Z,68.83
2019-03-10T07:24:03.193Z,69.14
2019-03-10T07:25:03.146Z,69.38
2019-03-10T07:26:03.111Z,69.45
2019-03-10T07:27:03.130Z,69.55
2019-03-10T07:28:03.092Z,69.04
2019-03-10T07:29:03.078Z,69.14
2019-03-10T07:30:03.058Z,68.83
2019-03-10T07:31:03.085Z,68.70
2019-03-10T07:32:03.043Z,69.01
2019-03-10T07:33:03.051Z,69.42
2019-03-10T07:34:03.031Z,68.59
2019-03-10T07:35:03.028Z,69.01
2019-03-10T07:36:03.012Z,69.31
2019-03-10T07:37:02.982Z,68.59
2019-03-10T07:38:02.976Z,68.35
2019-03-10T07:39:02.980Z,67.94
2019-03-10T07:40:02.989Z,67.74
2019-03-10T07:41:02.946Z,67.43
2019-03-10T07:42:02.929Z,67.33
2019-03-10T07:43:02.922Z,67.30
2019-03-10T07:44:02.902Z,67.12
2019-03-10T07:45:02.916Z,67.22
2019-03-10T07:46:02.906Z,67.22
2019-03-10T07:47:02.871Z,67.12
2019-03-10T07:48:02.862Z,67.09
2019-03-10T07:49:02.875Z,67.33
2019-03-10T07:50:02.849Z,66.91
2019-03-10T07:51:02.858Z,66.67
2019-03-10T07:52:02.863Z,66.88
2019-03-10T07:53:02.849Z,66.37
2019-03-10T07:54:03.456Z,66.78
2019-03-10T07:55:02.814Z,66.13
2019-03-10T07:56:02.777Z,66.24
2019-03-10T07:57:02.906Z,65.62
2019-03-10T07:58:02.819Z,65.83
2019-03-10T07:59:02.746Z,65.72
2019-03-10T08:00:02.883Z,65.59
2019-03-10T08:01:02.836Z,65.17
2019-03-10T08:02:02.747Z,65.17
2019-03-10T08:03:02.700Z,65.69
2019-03-10T08:04:02.687Z,65.48
2019-03-10T08:05:02.685Z,65.69
2019-03-10T08:06:02.672Z,65.17
2019-03-10T08:07:02.664Z,65.08
2019-03-10T08:08:02.674Z,64.84
2019-03-10T08:09:02.644Z,65.14
2019-03-10T08:10:02.617Z,64.04
2019-03-10T08:11:02.666Z,63.60
2019-03-10T08:12:02.662Z,64.22
2019-03-10T08:13:03.408Z,63.91
2019-03-10T08:14:02.586Z,64.01
2019-03-10T08:15:02.573Z,63.68
2019-03-10T08:16:02.555Z,63.27
2019-03-10T08:17:02.586Z,63.89
2019-03-10T08:18:02.540Z,63.57
2019-03-10T08:19:02.552Z,62.75
2019-03-10T08:20:02.513Z,62.96
2019-03-10T08:21:02.594Z,62.93
2019-03-10T08:22:02.568Z,62.93
2019-03-10T08:23:02.506Z,62.73
2019-03-10T08:24:02.651Z,62.39
2019-03-10T08:25:02.542Z,62.08
2019-03-10T08:26:11.474Z,61.57
2019-03-10T08:27:02.438Z,60.85
2019-03-10T08:28:02.444Z,60.67
2019-03-10T08:29:02.405Z,60.54
2019-03-10T08:30:02.422Z,60.85
2019-03-10T08:31:02.386Z,60.33
2019-03-10T08:32:02.375Z,60.41
2019-03-10T08:33:02.385Z,59.56
2019-03-10T08:34:02.355Z,59.15
2019-03-10T08:35:02.446Z,58.64
2019-03-10T08:36:02.340Z,58.30
2019-03-10T08:37:02.327Z,58.10
2019-03-10T08:38:02.339Z,57.92
2019-03-10T08:39:02.295Z,58.12
2019-03-10T08:40:02.313Z,58.95
2019-03-10T08:41:02.295Z,58.64
2019-03-10T08:42:02.288Z,58.44
2019-03-10T08:43:02.260Z,58.64
2019-03-10T08:44:02.249Z,58.44
2019-03-10T08:45:02.255Z,58.77
2019-03-10T08:46:02.221Z,59.08
2019-03-10T08:47:02.215Z,59.08
2019-03-10T08:48:02.203Z,59.72
2019-03-10T08:49:02.207Z,58.97
2019-03-10T08:50:02.209Z,59.28
2019-03-10T08:51:02.196Z,58.36
2019-03-10T08:52:02.168Z,59.18
2019-03-10T08:53:02.153Z,58.67
2019-03-10T08:54:02.134Z,58.12
2019-03-10T08:55:02.127Z,57.31
2019-03-10T08:56:02.136Z,58.00
2019-03-10T08:57:02.109Z,57.59
2019-03-10T08:58:02.096Z,57.92
2019-03-10T08:59:02.074Z,57.51
2019-03-10T09:00:02.094Z,58.15
2019-03-10T09:01:02.058Z,58.26
2019-03-10T09:02:02.049Z,58.15
2019-03-10T09:03:02.044Z,57.92
2019-03-10T09:04:02.019Z,57.69
2019-03-10T09:05:02.031Z,57.89
2019-03-10T09:06:02.006Z,57.18
2019-03-10T09:07:02.045Z,57.05
2019-03-10T09:08:02.023Z,57.15
2019-03-10T09:09:01.972Z,56.84
2019-03-10T09:10:01.962Z,56.51
2019-03-10T09:11:01.949Z,56.51
2019-03-10T09:12:01.957Z,56.51
2019-03-10T09:13:01.927Z,55.79
2019-03-10T09:14:01.928Z,56.13
2019-03-10T09:15:01.909Z,56.54
2019-03-10T09:16:01.922Z,56.13
2019-03-10T09:17:01.893Z,56.43
2019-03-10T09:18:01.868Z,56.33
2019-03-10T09:19:01.879Z,56.64
2019-03-10T09:20:01.871Z,56.56
2019-03-10T09:21:01.839Z,56.43
2019-03-10T09:22:01.824Z,56.43
2019-03-10T09:23:01.815Z,56.13
2019-03-10T09:24:01.825Z,55.82
2019-03-10T09:25:01.791Z,55.92
2019-03-10T09:26:01.817Z,55.92
2019-03-10T09:27:01.776Z,55.90
2019-03-10T09:28:01.763Z,54.46
2019-03-10T09:29:01.763Z,53.44
2019-03-10T09:30:01.735Z,53.72
2019-03-10T09:31:01.743Z,53.41
2019-03-10T09:32:01.712Z,53.03
2019-03-10T09:33:01.702Z,53.64
2019-03-10T09:34:01.710Z,54.28
2019-03-10T09:35:01.712Z,54.21
2019-03-10T09:36:01.671Z,54.92
2019-03-10T09:37:01.678Z,55.33
2019-03-10T09:38:03.595Z,55.33
2019-03-10T09:39:01.639Z,55.23
2019-03-10T09:40:01.665Z,54.82
2019-03-10T09:41:01.626Z,54.41
2019-03-10T09:42:01.603Z,54.38
2019-03-10T09:43:01.592Z,54.69
2019-03-10T09:44:03.703Z,54.36
2019-03-10T09:45:01.568Z,54.36
2019-03-10T09:46:01.590Z,54.16
2019-03-10T09:47:01.560Z,53.95
2019-03-10T09:48:01.539Z,53.87
2019-03-10T09:49:01.532Z,54.28
2019-03-10T09:50:01.514Z,54.38
2019-03-10T09:51:01.529Z,54.38
2019-03-10T09:52:01.498Z,55.21
2019-03-10T09:53:01.497Z,55.54
2019-03-10T09:54:01.478Z,55.30
2019-03-10T09:55:01.904Z,55.21
2019-03-10T09:56:01.475Z,55.00
2019-03-10T09:57:01.440Z,55.54
2019-03-10T09:58:01.436Z,55.74
2019-03-10T09:59:01.425Z,55.94
2019-03-10T10:00:01.421Z,55.94
2019-03-10T10:01:01.442Z,55.94
2019-03-10T10:02:01.421Z,55.62
2019-03-10T10:03:01.372Z,55.41
2019-03-10T10:04:01.363Z,55.54
2019-03-10T10:05:01.365Z,55.64
2019-03-10T10:06:01.343Z,56.15
2019-03-10T10:07:01.360Z,55.74
2019-03-10T10:08:01.321Z,56.05
2019-03-10T10:09:01.306Z,56.69
2019-03-10T10:10:01.308Z,57.28
2019-03-10T10:11:01.296Z,57.07
2019-03-10T10:12:01.297Z,56.97
2019-03-10T10:13:01.269Z,56.35
2019-03-10T10:14:01.257Z,56.67
2019-03-10T10:15:01.241Z,56.56
2019-03-10T10:16:01.236Z,56.67
2019-03-10T10:17:01.256Z,56.56
2019-03-10T10:18:01.214Z,56.67
2019-03-10T10:19:01.198Z,56.26
2019-03-10T10:20:01.186Z,56.49
2019-03-10T10:21:01.178Z,56.90
2019-03-10T10:22:01.192Z,57.20
2019-03-10T10:23:01.163Z,56.79
2019-03-10T10:24:01.149Z,56.87
2019-03-10T10:25:01.153Z,57.07
2019-03-10T10:26:01.129Z,56.56
2019-03-10T10:27:01.118Z,56.67
2019-03-10T10:28:01.105Z,56.97
2019-03-10T10:29:01.095Z,57.07
2019-03-10T10:30:01.110Z,56.43
2019-03-10T10:31:01.092Z,56.67
2019-03-10T10:32:01.128Z,56.64
2019-03-10T10:33:01.052Z,56.23
2019-03-10T10:34:01.044Z,56.43
2019-03-10T10:35:01.032Z,56.64
2019-03-10T10:36:01.048Z,56.54
2019-03-10T10:37:01.014Z,56.56
2019-03-10T10:38:01.020Z,56.26
2019-03-10T10:39:00.986Z,57.07
2019-03-10T10:40:00.983Z,56.90
2019-03-10T10:41:00.969Z,57.10
2019-03-10T10:42:00.949Z,57.10
2019-03-10T10:43:00.978Z,57.10
2019-03-10T10:44:00.942Z,57.41
2019-03-10T10:45:00.938Z,58.23
2019-03-10T10:46:00.924Z,57.41
2019-03-10T10:47:00.904Z,58.15
2019-03-10T10:48:00.892Z,58.77
2019-03-10T10:49:00.910Z,58.97
2019-03-10T10:50:00.867Z,58.97
2019-03-10T10:51:00.868Z,59.18
2019-03-10T10:52:00.881Z,59.48
2019-03-10T10:53:00.832Z,59.89
2019-03-10T10:54:00.847Z,60.44
2019-03-10T10:55:00.820Z,60.85
2019-03-10T10:56:00.816Z,60.85
2019-03-10T10:57:00.811Z,61.26
2019-03-10T10:58:00.799Z,61.57
2019-03-10T10:59:00.779Z,62.08
2019-03-10T11:00:00.765Z,62.49
2019-03-10T11:01:00.756Z,62.29
2019-03-10T11:02:00.737Z,62.29
2019-03-10T11:03:00.746Z,62.49
2019-03-10T11:04:00.720Z,62.80
2019-03-10T11:05:00.705Z,62.59
2019-03-10T11:06:00.732Z,63.72
2019-03-10T11:07:00.709Z,63.31
2019-03-10T11:08:00.702Z,63.42
2019-03-10T11:09:02.860Z,63.62
2019-03-10T11:10:00.650Z,64.23
2019-03-10T11:11:00.638Z,64.23
2019-03-10T11:12:00.635Z,64.47
2019-03-10T11:13:00.650Z,65.80
2019-03-10T11:14:00.606Z,65.80
2019-03-10T11:15:00.695Z,66.86
2019-03-10T11:16:00.593Z,67.17
2019-03-10T11:17:00.577Z,67.48
2019-03-10T11:18:09.022Z,67.38
2019-03-10T11:19:01.558Z,67.44
2019-03-10T11:20:00.550Z,67.38
2019-03-10T11:21:00.536Z,67.79
2019-03-10T11:22:00.549Z,67.79
2019-03-10T11:23:00.518Z,66.35
2019-03-10T11:24:00.498Z,67.38
2019-03-10T11:25:00.503Z,67.27
2019-03-10T11:26:00.487Z,66.17
2019-03-10T11:27:00.491Z,67.41
2019-03-10T11:28:00.474Z,67.41
2019-03-10T11:29:03.603Z,67.20
2019-03-10T11:30:00.460Z,68.54
2019-03-10T11:31:00.428Z,69.80
2019-03-10T11:32:00.451Z,69.70
2019-03-10T11:33:00.405Z,68.85
2019-03-10T11:34:00.394Z,67.20
2019-03-10T11:35:00.410Z,66.89
2019-03-10T11:36:00.367Z,66.69
2019-03-10T11:37:00.365Z,67.00
2019-03-10T11:38:00.387Z,67.20
2019-03-10T11:39:00.345Z,68.13
2019-03-10T11:40:00.331Z,64.94
2019-03-10T11:41:00.318Z,65.56
2019-03-10T11:42:00.306Z,66.28
2019-03-10T11:43:00.294Z,64.73
2019-03-10T11:44:00.306Z,65.66
2019-03-10T11:45:00.430Z,65.83
2019-03-10T11:46:00.257Z,64.70
2019-03-10T11:47:00.251Z,65.32
2019-03-10T11:48:00.239Z,63.98
2019-03-10T11:49:00.249Z,63.06
2019-03-10T11:50:00.381Z,61.96
2019-03-10T11:51:00.231Z,62.37
2019-03-10T11:52:00.199Z,61.86
2019-03-10T11:53:00.190Z,61.44
2019-03-10T11:54:00.190Z,61.35
2019-03-10T11:55:00.324Z,62.06
2019-03-10T11:56:00.151Z,61.76
2019-03-10T11:57:00.141Z,62.99
2019-03-10T11:58:00.137Z,62.06
2019-03-10T11:59:00.156Z,62.48
2019-03-10T12:00:00.338Z,61.35
2019-03-10T12:01:00.100Z,61.14
2019-03-10T12:02:00.089Z,61.35
2019-03-10T12:03:00.079Z,61.21
2019-03-10T12:04:00.071Z,61.52
2019-03-10T12:05:00.351Z,59.98
2019-03-10T12:06:00.049Z,59.95
2019-03-10T12:07:00.167Z,59.54
2019-03-10T12:08:00.022Z,59.34
2019-03-10T12:09:00.010Z,58.18
2019-03-10T12:10:00.025Z,57.39
2019-03-10T12:10:59.999Z,58.49
2019-03-10T12:11:59.984Z,58.59
2019-03-10T12:12:59.970Z,57.18
2019-03-10T12:13:59.954Z,57.18
2019-03-10T12:14:59.987Z,57.05
2019-03-10T12:15:59.938Z,56.95
2019-03-10T12:16:59.933Z,57.15
2019-03-10T12:17:59.920Z,57.46
2019-03-10T12:18:59.942Z,57.87
2019-03-10T12:19:59.888Z,57.46
2019-03-10T12:20:59.903Z,57.67
2019-03-10T12:21:59.900Z,58.18
2019-03-10T12:22:59.866Z,57.98
2019-03-10T12:23:59.855Z,58.87
2019-03-10T12:24:59.844Z,59.69
2019-03-10T12:25:59.847Z,58.59
2019-03-10T12:26:59.814Z,59.28
2019-03-10T12:27:59.805Z,59.69
2019-03-10T12:28:59.793Z,58.97
2019-03-10T12:29:59.790Z,57.46
2019-03-10T12:30:59.777Z,58.80
2019-03-10T12:31:59.784Z,58.18
2019-03-10T12:32:59.750Z,58.18
2019-03-10T12:33:59.746Z,59.00
2019-03-10T12:34:59.736Z,59.69
2019-03-10T12:35:59.725Z,57.95
2019-03-10T12:36:59.736Z,57.75
2019-03-10T12:37:59.718Z,58.36
2019-03-10T12:38:59.686Z,59.08
2019-03-10T12:39:59.673Z,59.25
2019-03-10T12:40:59.666Z,59.69
2019-03-10T12:41:59.686Z,60.49
2019-03-10T12:42:59.657Z,58.87
2019-03-10T12:43:59.639Z,59.05
2019-03-10T12:44:59.628Z,59.05
2019-03-10T12:45:59.612Z,57.84
2019-03-10T12:46:59.631Z,58.87
2019-03-10T12:47:59.633Z,59.48
2019-03-10T12:48:59.588Z,58.67
2019-03-10T12:49:59.583Z,58.59
2019-03-10T12:50:59.558Z,59.00
2019-03-10T12:51:59.550Z,59.28
2019-03-10T12:52:59.558Z,59.52
2019-03-10T12:53:59.537Z,60.31